Time;durP1;ratioP1;P1;durP2;ratioP2;P2;SDS_P1;SDS_P2;PMS_P1;PMS_P2;Temp;Humidity;BMP_temperature;BMP_pressure;BME280_temperature;BME280_humidity;BME280_pressure;Samples;Min_cycle;Max_cycle;Signal;HPM_P1;HPM_P2
2023/08/26 00:02:12;;;;;;;;;;;;;;;-144.99;100.00;52323.75;5071020;28;19968;-65
2023/08/26 00:04:40;;;;;;;;;;;;;;;-144.99;100.00;52360.44;5068494;28;19965;-65
2023/08/26 00:07:08;;;;;;;;;;;;;;;-144.99;100.00;52319.69;5070252;28;20083;-63
2023/08/26 00:09:34;;;;;;;;;;;;;;;-144.99;100.00;52309.50;5071320;28;20063;-63
2023/08/26 00:12:00;;;;;;;;;;;;;;;-144.99;100.00;52366.56;5069107;28;20065;-63
2023/08/26 00:14:27;;;;;;;;;;;;;;;-144.99;100.00;52313.56;5067249;28;19995;-64
2023/08/26 00:16:53;;;;;;;;;;;;;;;-144.99;100.00;52338.03;5068561;28;19956;-66
2023/08/26 00:19:20;;;;;;;;;;;;;;;-144.99;100.00;52325.81;5072948;28;19949;-65
2023/08/26 00:21:50;;;;;;;;;;;;;;;-144.99;100.00;52325.81;5070233;28;20434;-65
2023/08/26 00:24:17;;;;;;;;;;;;;;;-144.99;100.00;52346.19;4720778;27;10000491;-65
2023/08/26 00:26:43;;;;;;;;;;;;;;;-144.99;100.00;52354.34;5069101;28;19971;-67
2023/08/26 00:29:09;;;;;;;;;;;;;;;-144.99;100.00;52333.94;5070899;28;19998;-67
2023/08/26 00:31:36;;;;;;;;;;;;;;;-144.99;100.00;52338.03;5067047;28;19982;-68
2023/08/26 00:34:03;;;;;;;;;;;;;;;-144.99;100.00;52325.81;5071237;28;19982;-64
2023/08/26 00:36:30;;;;;;;;;;;;;;;-144.99;100.00;52313.56;5071003;28;19942;-61
2023/08/26 00:38:58;;;;;;;;;;;;;;;-144.99;100.00;52358.41;5089063;28;20351;-66
2023/08/26 00:41:24;;;;;;;;;;;;;;;-144.99;100.00;52329.88;5091070;28;19987;-64
2023/08/26 00:43:51;;;;;;;;;;;;;;;-144.99;100.00;52297.25;5075408;28;20000;-66
2023/08/26 00:46:17;;;;;;;;;;;;;;;-144.99;100.00;52301.34;5075088;28;20008;-66
2023/08/26 00:48:44;;;;;;;;;;;;;;;-144.99;100.00;52321.72;5082554;28;19952;-67
2023/08/26 00:51:11;;;;;;;;;;;;;;;-144.99;100.00;52327.84;5072007;28;19943;-67
2023/08/26 00:53:38;;;;;;;;;;;;;;;-144.99;100.00;52278.91;5073706;28;20488;-67
2023/08/26 00:56:06;;;;;;;;;;;;;;;-144.99;100.00;52327.84;5069997;28;19945;-67
2023/08/26 00:58:32;;;;;;;;;;;;;;;-144.99;100.00;52319.69;5072050;28;20116;-67
2023/08/26 01:00:59;;;;;;;;;;;;;;;-144.99;100.00;52338.03;5071628;28;20349;-67
2023/08/26 01:03:25;;;;;;;;;;;;;;;-144.99;100.00;52352.28;5071204;28;20652;-66
2023/08/26 01:05:52;;;;;;;;;;;;;;;-144.99;100.00;52301.34;5069944;28;20370;-67
2023/08/26 01:08:18;;;;;;;;;;;;;;;-144.99;100.00;52336.00;5071876;28;19962;-66
2023/08/26 01:10:51;;;;;;;;;;;;;;;-144.99;100.00;52333.94;5075371;28;19947;-67
2023/08/26 01:13:22;;;;;;;;;;;;;;;-144.99;100.00;52317.66;5075336;28;20062;-66
2023/08/26 01:15:50;;;;;;;;;;;;;;;-144.99;100.00;52301.34;5073015;28;20016;-67
2023/08/26 01:18:17;;;;;;;;;;;;;;;-144.99;100.00;52321.72;5073928;28;20035;-67
2023/08/26 01:20:44;;;;;;;;;;;;;;;-144.99;100.00;52354.34;5075488;28;20140;-67
2023/08/26 01:23:16;;;;;;;;;;;;;;;-144.99;100.00;52301.34;5072274;28;19966;-68
2023/08/26 01:25:44;;;;;;;;;;;;;;;-144.99;100.00;52329.88;5072659;28;20031;-64
2023/08/26 01:28:11;;;;;;;;;;;;;;;-144.99;100.00;52305.41;5074671;28;20394;-64
2023/08/26 01:30:38;;;;;;;;;;;;;;;-144.99;100.00;52291.16;5078208;28;19948;-64
2023/08/26 01:33:08;;;;;;;;;;;;;;;-144.99;100.00;52305.41;5080577;28;19964;-64
2023/08/26 01:35:37;;;;;;;;;;;;;;;-144.99;100.00;52309.50;5074584;28;19947;-63
2023/08/26 01:38:04;;;;;;;;;;;;;;;-144.99;100.00;52313.56;5078492;28;19947;-65
2023/08/26 01:40:31;;;;;;;;;;;;;;;-144.99;100.00;52342.09;5077250;28;20029;-65
2023/08/26 01:42:59;;;;;;;;;;;;;;;-144.99;100.00;52338.03;5078181;28;20051;-64
2023/08/26 01:45:25;;;;;;;;;;;;;;;-144.99;100.00;52313.56;5076480;28;20420;-67
2023/08/26 01:47:52;;;;;;;;;;;;;;;-144.99;100.00;52293.19;5078638;28;20369;-67
2023/08/26 01:50:19;;;;;;;;;;;;;;;-144.99;100.00;52358.41;5077468;28;19953;-65
2023/08/26 01:52:45;;;;;;;;;;;;;;;-144.99;100.00;52350.25;5079530;28;19970;-64
2023/08/26 01:55:11;;;;;;;;;;;;;;;-144.99;100.00;52325.81;5085807;27;20492;-66
2023/08/26 01:57:38;;;;;;;;;;;;;;;-144.99;100.00;52346.19;5077173;28;19945;-66
2023/08/26 02:00:07;;;;;;;;;;;;;;;-144.99;100.00;52313.56;5087383;28;19941;-65
2023/08/26 02:02:33;;;;;;;;;;;;;;;-144.99;100.00;52321.72;5087405;28;19965;-66
2023/08/26 02:05:00;;;;;;;;;;;;;;;-144.99;100.00;52293.19;5089929;28;20046;-66
2023/08/26 02:07:26;;;;;;;;;;;;;;;-144.99;100.00;52313.56;5089367;28;19986;-66
2023/08/26 02:09:53;;;;;;;;;;;;;;;-144.99;100.00;52287.06;5078401;28;19980;-66
2023/08/26 02:12:19;;;;;;;;;;;;;;;-144.99;100.00;52342.09;5076274;28;20013;-65
2023/08/26 02:14:45;;;;;;;;;;;;;;;-144.99;100.00;52346.19;5074733;28;20117;-66
2023/08/26 02:17:13;;;;;;;;;;;;;;;-144.99;100.00;52309.50;5075590;28;20073;-65
2023/08/26 02:19:40;;;;;;;;;;;;;;;-144.99;100.00;52313.56;5075007;28;19951;-66
2023/08/26 02:22:06;;;;;;;;;;;;;;;-144.99;100.00;52309.50;5076791;28;19974;-66
2023/08/26 02:24:33;;;;;;;;;;;;;;;-144.99;100.00;52280.97;5076406;28;19996;-66
2023/08/26 02:27:00;;;;;;;;;;;;;;;-144.99;100.00;52333.94;5077931;28;20464;-66
2023/08/26 02:29:26;;;;;;;;;;;;;;;-144.99;100.00;52321.72;5076114;28;20395;-66
2023/08/26 02:31:53;;;;;;;;;;;;;;;-144.99;100.00;52313.56;5071149;22;20058;-64
2023/08/26 02:34:21;;;;;;;;;;;;;;;-144.99;100.00;52354.34;5015659;28;20046;-62
2023/08/26 02:36:47;;;;;;;;;;;;;;;-144.99;100.00;52289.13;5018071;28;20001;-62
2023/08/26 02:39:14;;;;;;;;;;;;;;;-144.99;100.00;52366.56;5019578;28;19946;-62
2023/08/26 02:41:40;;;;;;;;;;;;;;;-144.99;100.00;52342.09;5027071;28;19948;-65
2023/08/26 02:44:07;;;;;;;;;;;;;;;-144.99;100.00;52280.97;5015796;28;20005;-65
2023/08/26 02:46:33;;;;;;;;;;;;;;;-144.99;100.00;52309.50;5018256;28;19949;-65
2023/08/26 02:49:01;;;;;;;;;;;;;;;-144.99;100.00;52327.84;5017661;28;20018;-65
2023/08/26 02:51:29;;;;;;;;;;;;;;;-144.99;100.00;52354.34;5016659;28;20006;-64
2023/08/26 02:53:55;;;;;;;;;;;;;;;-144.99;100.00;52338.03;5015264;28;20054;-67
2023/08/26 02:56:22;;;;;;;;;;;;;;;-144.99;100.00;52333.94;5017414;28;19981;-67
2023/08/26 02:58:48;;;;;;;;;;;;;;;-144.99;100.00;52350.25;5015437;28;20027;-67
2023/08/26 03:01:16;;;;;;;;;;;;;;;-144.99;100.00;52350.25;5016039;28;20019;-62
2023/08/26 03:03:42;;;;;;;;;;;;;;;-144.99;100.00;52350.25;5015478;28;22292;-64
2023/08/26 03:06:09;;;;;;;;;;;;;;;-144.99;100.00;52358.41;5017445;28;20054;-60
2023/08/26 03:08:37;;;;;;;;;;;;;;;-144.99;100.00;52333.94;5016886;28;20269;-60
2023/08/26 03:11:04;;;;;;;;;;;;;;;-144.99;100.00;52329.88;5015799;28;20056;-59
2023/08/26 03:13:30;;;;;;;;;;;;;;;-144.99;100.00;52323.75;5013924;28;20123;-59
2023/08/26 03:15:57;;;;;;;;;;;;;;;-144.99;100.00;52350.25;5016350;28;19954;-60
2023/08/26 03:18:24;;;;;;;;;;;;;;;-144.99;100.00;52303.38;5017582;28;19952;-59
2023/08/26 03:20:50;;;;;;;;;;;;;;;-144.99;100.00;52338.03;5014360;28;20409;-59
2023/08/26 03:23:16;;;;;;;;;;;;;;;-144.99;100.00;52317.66;5019717;28;20058;-62
2023/08/26 03:25:44;;;;;;;;;;;;;;;-144.99;100.00;52338.03;5020769;28;20012;-63
2023/08/26 03:28:11;;;;;;;;;;;;;;;-144.99;100.00;52366.56;5016158;28;20044;-62
2023/08/26 03:30:37;;;;;;;;;;;;;;;-144.99;100.00;52315.59;5017163;28;20033;-60
2023/08/26 03:33:04;;;;;;;;;;;;;;;-144.99;100.00;52370.63;5014605;28;20047;-63
2023/08/26 03:35:31;;;;;;;;;;;;;;;-144.99;100.00;52336.00;5015125;28;20681;-63
2023/08/26 03:37:57;;;;;;;;;;;;;;;-144.99;100.00;52329.88;5015554;28;20067;-63
2023/08/26 03:40:23;;;;;;;;;;;;;;;-144.99;100.00;52358.41;5015932;28;19991;-63
2023/08/26 03:42:51;;;;;;;;;;;;;;;-144.99;100.00;52342.09;5016764;28;19968;-63
2023/08/26 03:45:18;;;;;;;;;;;;;;;-144.99;100.00;52342.09;5015205;28;19973;-63
2023/08/26 03:47:45;;;;;;;;;;;;;;;-144.99;100.00;52352.28;5015487;28;20422;-63
2023/08/26 03:50:11;;;;;;;;;;;;;;;-144.99;100.00;52295.22;5016046;28;19952;-63
2023/08/26 03:52:37;;;;;;;;;;;;;;;-144.99;100.00;52358.41;5014796;28;20000;-63
2023/08/26 03:55:05;;;;;;;;;;;;;;;-144.99;100.00;52346.19;5015006;28;20479;-63
2023/08/26 03:57:31;;;;;;;;;;;;;;;-144.99;100.00;52327.84;5014439;28;19950;-65
2023/08/26 03:59:59;;;;;;;;;;;;;;;-144.99;100.00;52333.94;5016720;28;19993;-65
2023/08/26 04:02:26;;;;;;;;;;;;;;;-144.99;100.00;52309.50;5015183;28;20033;-65
2023/08/26 04:04:52;;;;;;;;;;;;;;;-144.99;100.00;52340.06;5014812;28;20062;-66
2023/08/26 04:07:19;;;;;;;;;;;;;;;-144.99;100.00;52315.59;5015078;28;20312;-66
2023/08/26 04:09:45;;;;;;;;;;;;;;;-144.99;100.00;52325.81;5015859;28;20001;-66
2023/08/26 04:12:12;;;;;;;;;;;;;;;-144.99;100.00;52350.25;5012706;28;19962;-65
2023/08/26 04:14:38;;;;;;;;;;;;;;;-144.99;100.00;52325.81;5015560;28;19946;-65
2023/08/26 04:17:06;;;;;;;;;;;;;;;-144.99;100.00;52313.56;5015537;28;19972;-65
2023/08/26 04:19:33;;;;;;;;;;;;;;;-144.99;100.00;52313.56;5016574;28;20001;-64
2023/08/26 04:22:00;;;;;;;;;;;;;;;-144.99;100.00;52329.88;5016403;28;19959;-63
2023/08/26 04:24:26;;;;;;;;;;;;;;;-144.99;100.00;52321.72;5014165;28;20032;-64
2023/08/26 04:26:53;;;;;;;;;;;;;;;-144.99;100.00;52301.34;5015231;28;20037;-67
2023/08/26 04:29:19;;;;;;;;;;;;;;;-144.99;100.00;52370.63;5016708;28;19985;-63
2023/08/26 04:31:46;;;;;;;;;;;;;;;-144.99;100.00;52354.34;5013794;28;20135;-59
2023/08/26 04:34:13;;;;;;;;;;;;;;;-144.99;100.00;52338.03;5015686;28;19954;-59
2023/08/26 04:36:40;;;;;;;;;;;;;;;-144.99;100.00;52301.34;5014603;28;20019;-59
2023/08/26 04:39:11;;;;;;;;;;;;;;;-144.99;100.00;52329.88;5014795;28;19985;-59
2023/08/26 04:41:37;;;;;;;;;;;;;;;-144.99;100.00;52374.72;5014861;28;19945;-59
2023/08/26 04:44:04;;;;;;;;;;;;;;;-144.99;100.00;52370.63;5014378;28;19950;-59
2023/08/26 04:46:32;;;;;;;;;;;;;;;-144.99;100.00;52354.34;5013601;28;19964;-60
2023/08/26 04:48:58;;;;;;;;;;;;;;;-144.99;100.00;52350.25;5012403;28;19946;-61
2023/08/26 04:51:26;;;;;;;;;;;;;;;-144.99;100.00;52338.03;5012912;28;20376;-61
2023/08/26 04:53:53;;;;;;;;;;;;;;;-144.99;100.00;52342.09;5014064;28;20044;-61
2023/08/26 04:56:20;;;;;;;;;;;;;;;-144.99;100.00;52356.38;5013432;28;20515;-61
2023/08/26 04:58:46;;;;;;;;;;;;;;;-144.99;100.00;52317.66;5014502;28;20050;-60
2023/08/26 05:01:13;;;;;;;;;;;;;;;-144.99;100.00;52366.56;5019889;28;20392;-66
2023/08/26 05:03:39;;;;;;;;;;;;;;;-144.99;100.00;52346.19;5021281;28;20005;-66
2023/08/26 05:06:06;;;;;;;;;;;;;;;-144.99;100.00;52346.19;5017232;28;19967;-61
2023/08/26 05:08:33;;;;;;;;;;;;;;;-144.99;100.00;52352.28;5016817;28;20469;-62
2023/08/26 05:11:00;;;;;;;;;;;;;;;-144.99;100.00;52313.56;5017372;28;19959;-61
2023/08/26 05:13:26;;;;;;;;;;;;;;;-144.99;100.00;52342.09;5016391;28;19956;-64
2023/08/26 05:15:53;;;;;;;;;;;;;;;-144.99;100.00;52354.34;5017517;28;19944;-61
2023/08/26 05:18:21;;;;;;;;;;;;;;;-144.99;100.00;52297.25;5017896;28;19946;-61
2023/08/26 05:20:47;;;;;;;;;;;;;;;-144.99;100.00;52338.03;5017944;28;19944;-64
2023/08/26 05:23:15;;;;;;;;;;;;;;;-144.99;100.00;52315.59;5017162;28;20073;-61
2023/08/26 05:25:44;;;;;;;;;;;;;;;-144.99;100.00;52348.22;5015943;28;20055;-63
2023/08/26 05:28:11;;;;;;;;;;;;;;;-144.99;100.00;52307.47;5018756;28;19942;-64
2023/08/26 05:30:37;;;;;;;;;;;;;;;-144.99;100.00;52342.09;5017364;28;20026;-64
2023/08/26 05:33:04;;;;;;;;;;;;;;;-144.99;100.00;52338.03;5017237;28;20068;-63
2023/08/26 05:35:30;;;;;;;;;;;;;;;-144.99;100.00;52358.41;5015259;28;21707;-64
2023/08/26 05:37:57;;;;;;;;;;;;;;;-144.99;100.00;52370.63;5018591;28;20570;-63
2023/08/26 05:40:26;;;;;;;;;;;;;;;-144.99;100.00;52285.03;5016118;28;19979;-64
2023/08/26 05:42:56;;;;;;;;;;;;;;;-144.99;100.00;52325.81;5016682;28;19968;-63
2023/08/26 05:45:23;;;;;;;;;;;;;;;-144.99;100.00;52342.09;5022332;28;19966;-70
2023/08/26 05:47:50;;;;;;;;;;;;;;;-144.99;100.00;52309.50;5019185;28;20079;-68
2023/08/26 05:50:16;;;;;;;;;;;;;;;-144.99;100.00;52352.28;5018886;28;19991;-69
2023/08/26 05:52:44;;;;;;;;;;;;;;;-144.99;100.00;52331.91;5023490;28;20099;-68
2023/08/26 05:55:11;;;;;;;;;;;;;;;-144.99;100.00;52333.94;5020611;28;20004;-68
2023/08/26 05:57:37;;;;;;;;;;;;;;;-144.99;100.00;52338.03;5019763;28;19950;-68
2023/08/26 06:00:06;;;;;;;;;;;;;;;-144.99;100.00;52358.41;5018532;28;19969;-67
2023/08/26 06:02:32;;;;;;;;;;;;;;;-144.99;100.00;52313.56;5020213;28;20514;-67
2023/08/26 06:04:59;;;;;;;;;;;;;;;-144.99;100.00;52354.34;5016737;28;19949;-66
2023/08/26 06:07:25;;;;;;;;;;;;;;;-144.99;100.00;52346.19;5019498;28;20115;-65
2023/08/26 06:09:52;;;;;;;;;;;;;;;-144.99;100.00;52333.94;5016054;28;20054;-66
2023/08/26 06:12:18;;;;;;;;;;;;;;;-144.99;100.00;52358.41;5016109;28;20499;-61
2023/08/26 06:14:45;;;;;;;;;;;;;;;-144.99;100.00;52350.25;5013020;28;19995;-62
2023/08/26 06:17:13;;;;;;;;;;;;;;;-144.99;100.00;52354.34;5017981;28;19998;-61
2023/08/26 06:19:39;;;;;;;;;;;;;;;-144.99;100.00;52358.41;5017315;28;19951;-63
2023/08/26 06:22:06;;;;;;;;;;;;;;;-144.99;100.00;52366.56;5016571;28;20326;-64
2023/08/26 06:24:32;;;;;;;;;;;;;;;-144.99;100.00;52309.50;5017399;28;20079;-63
2023/08/26 06:26:59;;;;;;;;;;;;;;;-144.99;100.00;52323.75;5015185;28;19976;-63
2023/08/26 06:29:25;;;;;;;;;;;;;;;-144.99;100.00;52325.81;5015471;28;20266;-70
2023/08/26 06:31:52;;;;;;;;;;;;;;;-144.99;100.00;52336.00;5017574;28;19966;-63
2023/08/26 06:34:20;;;;;;;;;;;;;;;-144.99;100.00;52374.72;5016011;28;19961;-63
2023/08/26 06:36:46;;;;;;;;;;;;;;;-144.99;100.00;52338.03;5015368;28;19950;-64
2023/08/26 06:39:13;;;;;;;;;;;;;;;-144.99;100.00;52370.63;5017221;28;20497;-66
2023/08/26 06:41:39;;;;;;;;;;;;;;;-144.99;100.00;52329.88;5014208;28;21587;-66
2023/08/26 06:44:06;;;;;;;;;;;;;;;-144.99;100.00;52368.59;5013942;28;20447;-65
2023/08/26 06:46:32;;;;;;;;;;;;;;;-144.99;100.00;52323.75;5015531;28;20001;-66
2023/08/26 06:48:59;;;;;;;;;;;;;;;-144.99;100.00;52378.78;5016469;28;19949;-66
2023/08/26 06:51:27;;;;;;;;;;;;;;;-144.99;100.00;52354.34;5015696;28;19949;-66
2023/08/26 06:53:53;;;;;;;;;;;;;;;-144.99;100.00;52305.41;5015635;28;19980;-65
2023/08/26 06:56:20;;;;;;;;;;;;;;;-144.99;100.00;52350.25;5014936;28;19947;-66
2023/08/26 06:58:46;;;;;;;;;;;;;;;-144.99;100.00;52321.72;5015619;28;19989;-65
2023/08/26 07:01:13;;;;;;;;;;;;;;;-144.99;100.00;52352.28;5015614;28;20060;-65
2023/08/26 07:03:40;;;;;;;;;;;;;;;-144.99;100.00;52331.91;5015724;28;19961;-65
2023/08/26 07:06:06;;;;;;;;;;;;;;;-144.99;100.00;52338.03;5016640;28;20669;-66
2023/08/26 07:08:34;;;;;;;;;;;;;;;-144.99;100.00;52366.56;5015920;28;19969;-67
2023/08/26 07:11:00;;;;;;;;;;;;;;;-144.99;100.00;52340.06;5015526;28;19952;-67
2023/08/26 07:13:27;;;;;;;;;;;;;;;-144.99;100.00;52313.56;5015762;28;20033;-67
2023/08/26 07:15:53;;;;;;;;;;;;;;;-144.99;100.00;52315.59;5014703;28;20330;-67
2023/08/26 07:18:20;;;;;;;;;;;;;;;-144.99;100.00;52358.41;5018042;28;20042;-67
2023/08/26 07:20:46;;;;;;;;;;;;;;;-144.99;100.00;52336.00;5013876;28;20051;-67
2023/08/26 07:23:13;;;;;;;;;;;;;;;-144.99;100.00;52346.19;5016366;28;19967;-68
2023/08/26 07:25:41;;;;;;;;;;;;;;;-144.99;100.00;52366.56;5015252;28;19945;-71
2023/08/26 07:28:08;;;;;;;;;;;;;;;-144.99;100.00;52338.03;5016373;28;20057;-70
2023/08/26 07:30:34;;;;;;;;;;;;;;;-144.99;98.21;52344.16;5016642;28;20406;-70
2023/08/26 07:33:01;;;;;;;;;;;;;;;-144.99;97.96;52325.81;5015690;28;20426;-71
2023/08/26 07:35:27;;;;;;;;;;;;;;;-144.99;96.99;52313.56;5017999;28;19946;-71
2023/08/26 07:37:54;;;;;;;;;;;;;;;-144.99;96.58;52325.81;5013176;28;20039;-70
2023/08/26 07:40:20;;;;;;;;;;;;;;;-144.99;92.61;52336.00;5017742;28;19973;-71
2023/08/26 07:42:48;;;;;;;;;;;;;;;-144.99;92.15;52340.06;5029238;28;20066;-71
2023/08/26 07:45:15;;;;;;;;;;;;;;;-144.99;91.19;52325.81;5023995;28;20335;-71
2023/08/26 07:47:42;;;;;;;;;;;;;;;-144.99;90.59;52289.13;5025693;28;20048;-71
2023/08/26 07:50:11;;;;;;;;;;;;;;;-144.99;89.88;52301.34;5022995;28;20440;-71
2023/08/26 07:52:38;;;;;;;;;;;;;;;-144.99;89.29;52338.03;5023134;28;20378;-72
2023/08/26 07:55:05;;;;;;;;;;;;;;;-144.99;89.74;52333.94;5026492;28;19946;-71
2023/08/26 07:57:32;;;;;;;;;;;;;;;-144.99;90.28;52325.81;5019967;28;19961;-70
2023/08/26 07:59:59;;;;;;;;;;;;;;;-144.99;90.78;52305.41;5025462;28;20000;-70
2023/08/26 08:02:26;;;;;;;;;;;;;;;-144.99;89.20;52319.69;5025735;28;20007;-70
2023/08/26 08:04:52;;;;;;;;;;;;;;;-144.99;87.99;52299.31;5024408;28;20016;-71
2023/08/26 08:07:19;;;;;;;;;;;;;;;-144.99;88.09;52323.75;5024985;28;20062;-71
2023/08/26 08:09:45;;;;;;;;;;;;;;;-144.99;88.95;52315.59;5022834;28;19957;-71
2023/08/26 08:12:14;;;;;;;;;;;;;;;-144.99;88.27;52354.34;5030896;28;19960;-71
2023/08/26 08:14:41;;;;;;;;;;;;;;;-144.99;85.67;52323.75;5016792;28;20273;-71
2023/08/26 08:17:09;;;;;;;;;;;;;;;-144.99;85.12;52313.56;5025326;28;20036;-71
2023/08/26 08:19:38;;;;;;;;;;;;;;;-144.99;83.27;52321.72;5027937;28;20191;-71
2023/08/26 08:22:04;;;;;;;;;;;;;;;-144.99;84.43;52338.03;5025119;28;19987;-71
2023/08/26 08:24:31;;;;;;;;;;;;;;;-144.99;84.06;52301.34;5023727;28;20224;-71
2023/08/26 08:26:57;;;;;;;;;;;;;;;-144.99;83.15;52333.94;5030419;28;20064;-72
2023/08/26 08:29:24;;;;;;;;;;;;;;;-144.99;82.80;52317.66;5022025;28;19948;-71
2023/08/26 08:31:50;;;;;;;;;;;;;;;-144.99;83.61;52303.38;5026056;28;20444;-71
2023/08/26 08:34:18;;;;;;;;;;;;;;;-144.99;83.76;52329.88;5024523;28;20023;-71
2023/08/26 08:36:45;;;;;;;;;;;;;;;-144.99;83.18;52348.22;5026378;28;20376;-72
2023/08/26 08:39:11;;;;;;;;;;;;;;;-144.99;83.08;52305.41;5022854;28;20058;-72
2023/08/26 08:41:40;;;;;;;;;;;;;;;-144.99;82.82;52342.09;5021440;28;20769;-72
2023/08/26 08:44:10;;;;;;;;;;;;;;;-144.99;82.27;52374.72;5028520;28;20005;-70
2023/08/26 08:46:36;;;;;;;;;;;;;;;-144.99;83.15;52333.94;4677486;28;10000136;-72
2023/08/26 08:49:03;;;;;;;;;;;;;;;-144.99;83.25;52354.34;5029880;28;19969;-71
2023/08/26 08:51:31;;;;;;;;;;;;;;;-144.99;83.06;52321.72;5022716;28;20379;-71
2023/08/26 08:53:58;;;;;;;;;;;;;;;-144.99;81.68;52342.09;5030763;28;20016;-71
2023/08/26 08:56:25;;;;;;;;;;;;;;;-144.99;82.35;52333.94;5024668;28;20318;-72
2023/08/26 08:58:52;;;;;;;;;;;;;;;-144.99;82.42;52297.25;5031903;28;20044;-72
2023/08/26 09:01:19;;;;;;;;;;;;;;;-144.99;82.83;52362.50;5031053;28;19970;-71
2023/08/26 09:03:46;;;;;;;;;;;;;;;-144.99;83.84;52366.56;5029867;28;19961;-72
2023/08/26 09:06:13;;;;;;;;;;;;;;;-144.99;84.12;52358.41;5036965;28;19949;-71
2023/08/26 09:08:41;;;;;;;;;;;;;;;-144.99;84.61;52333.94;5023794;28;19949;-71
2023/08/26 09:11:07;;;;;;;;;;;;;;;-144.99;83.98;52350.25;5023564;28;20507;-72
2023/08/26 09:13:34;;;;;;;;;;;;;;;-144.99;83.89;52336.00;5022272;28;20531;-72
2023/08/26 09:16:01;;;;;;;;;;;;;;;-144.99;83.99;52313.56;5024678;28;19959;-72
2023/08/26 09:18:28;;;;;;;;;;;;;;;-144.99;82.99;52354.34;5026153;28;20043;-72
2023/08/26 09:20:55;;;;;;;;;;;;;;;-144.99;82.16;52321.72;5025470;28;20426;-72
2023/08/26 09:23:21;;;;;;;;;;;;;;;-144.99;79.14;52276.88;5023592;28;20019;-72
2023/08/26 09:25:53;;;;;;;;;;;;;;;-144.99;77.45;52327.84;5026349;28;20040;-72
2023/08/26 09:28:20;;;;;;;;;;;;;;;-144.99;74.71;52293.19;5018675;28;20340;-72
2023/08/26 09:31:01;;;;;;;;;;;;;;;-144.99;75.24;52309.50;5025927;28;20383;-72
2023/08/26 09:33:27;;;;;;;;;;;;;;;-144.99;74.16;52289.13;5023690;28;20059;-72
2023/08/26 09:35:54;;;;;;;;;;;;;;;-144.99;72.65;52299.31;5022150;28;20052;-72
2023/08/26 09:38:21;;;;;;;;;;;;;;;-144.99;73.79;52264.66;5025680;28;19950;-71
2023/08/26 09:40:47;;;;;;;;;;;;;;;-144.99;72.35;52268.72;5026076;28;20162;-72
2023/08/26 09:43:15;;;;;;;;;;;;;;;-144.99;70.57;52262.63;5023480;28;20071;-71
2023/08/26 09:45:42;;;;;;;;;;;;;;;-144.99;70.55;52260.56;5026157;28;19996;-72
2023/08/26 09:48:08;;;;;;;;;;;;;;;-144.99;69.86;52268.72;5025226;28;20050;-72
2023/08/26 09:50:35;;;;;;;;;;;;;;;-144.99;67.02;52301.34;5030760;28;19948;-73
2023/08/26 09:53:02;;;;;;;;;;;;;;;-144.99;67.27;52276.88;5026951;28;20309;-72
2023/08/26 09:55:29;;;;;;;;;;;;;;;-144.99;68.01;52258.53;5027142;28;19952;-72
2023/08/26 09:57:57;;;;;;;;;;;;;;;-144.99;67.69;52256.50;5026535;28;19992;-73
2023/08/26 10:00:25;;;;;;;;;;;;;;;-144.99;67.54;52278.91;5026162;28;19951;-72
2023/08/26 10:02:52;;;;;;;;;;;;;;;-144.99;67.80;52260.56;4994364;28;20220;-73
2023/08/26 10:05:19;;;;;;;;;;;;;;;-144.99;67.22;52293.19;5004513;28;20111;-74
2023/08/26 10:07:47;;;;;;;;;;;;;;;-144.99;66.95;52250.38;5007869;28;20363;-74
2023/08/26 10:10:17;;;;;;;;;;;;;;;-144.99;67.02;52268.72;5009000;28;20064;-73
2023/08/26 10:12:45;;;;;;;;;;;;;;;-144.99;67.88;52313.56;5007455;28;19967;-72
2023/08/26 10:15:13;;;;;;;;;;;;;;;-144.99;68.80;52317.66;5011754;28;20069;-74
2023/08/26 10:17:41;;;;;;;;;;;;;;;-144.99;68.77;52293.19;5007664;28;20404;-72
2023/08/26 10:20:09;;;;;;;;;;;;;;;-144.99;69.40;52307.47;5007684;28;20045;-73
2023/08/26 10:22:36;;;;;;;;;;;;;;;-144.99;70.48;52325.81;5006473;28;20418;-73
2023/08/26 10:25:03;;;;;;;;;;;;;;;-144.99;70.26;52356.38;5006831;28;19945;-73
2023/08/26 10:27:29;;;;;;;;;;;;;;;-144.99;70.96;52338.03;5001882;28;20000;-73
2023/08/26 10:29:56;;;;;;;;;;;;;;;-144.99;71.32;52356.38;5000491;28;20093;-75
2023/08/26 10:32:23;;;;;;;;;;;;;;;-144.99;71.83;52329.88;5000394;28;19969;-69
2023/08/26 10:34:54;;;;;;;;;;;;;;;-144.99;71.26;52386.94;4998815;28;19950;-68
2023/08/26 10:37:21;;;;;;;;;;;;;;;-144.99;71.44;52336.00;5003988;28;20363;-70
2023/08/26 10:39:47;;;;;;;;;;;;;;;-144.99;71.96;52329.88;5000080;28;20468;-68
2023/08/26 10:42:16;;;;;;;;;;;;;;;-144.99;71.41;52256.50;5002511;28;20431;-67
2023/08/26 10:44:43;;;;;;;;;;;;;;;-144.99;71.17;52333.94;5000811;28;20500;-68
2023/08/26 10:47:09;;;;;;;;;;;;;;;-144.99;69.04;52317.66;5002597;28;19977;-68
2023/08/26 10:49:37;;;;;;;;;;;;;;;-144.99;68.66;52317.66;5003907;28;20582;-68
2023/08/26 10:52:17;;;;;;;;;;;;;;;-144.99;68.70;52293.19;5004666;28;20434;-68
2023/08/26 10:54:44;;;;;;;;;;;;;;;-144.99;68.88;52244.28;5003201;28;19969;-67
2023/08/26 10:57:10;;;;;;;;;;;;;;;-144.99;68.48;52248.34;5000453;28;20047;-67
2023/08/26 10:59:37;;;;;;;;;;;;;;;-144.99;68.70;52256.50;5004057;28;20067;-67
2023/08/26 11:02:06;;;;;;;;;;;;;;;-144.99;68.16;52264.66;5005589;28;19963;-67
2023/08/26 11:04:34;;;;;;;;;;;;;;;-144.99;68.03;52305.41;5005056;28;19954;-67
2023/08/26 11:07:01;;;;;;;;;;;;;;;-144.99;68.00;52317.66;4998234;28;19952;-67
2023/08/26 11:09:29;;;;;;;;;;;;;;;-144.99;68.36;52301.34;5000520;28;20041;-67
2023/08/26 11:11:55;;;;;;;;;;;;;;;-144.99;69.04;52287.06;5004494;28;19962;-67
2023/08/26 11:14:30;;;;;;;;;;;;;;;-144.99;69.53;52333.94;5004042;28;19949;-66
2023/08/26 11:16:56;;;;;;;;;;;;;;;-144.99;70.20;52333.94;4995484;28;20302;-67
2023/08/26 11:19:23;;;;;;;;;;;;;;;-144.99;70.83;52317.66;4995797;28;20048;-68
2023/08/26 11:21:50;;;;;;;;;;;;;;;-144.99;70.41;52293.19;4996685;28;19963;-68
2023/08/26 11:24:16;;;;;;;;;;;;;;;-144.99;69.18;52232.03;4999043;28;20037;-68
2023/08/26 11:26:48;;;;;;;;;;;;;;;-144.99;68.31;52268.72;5000453;28;19951;-67
2023/08/26 11:29:14;;;;;;;;;;;;;;;-144.99;67.60;52276.88;4997779;28;20284;-68
2023/08/26 11:31:41;;;;;;;;;;;;;;;-144.99;68.43;52293.19;4993796;28;19951;-68
2023/08/26 11:34:07;;;;;;;;;;;;;;;-144.99;69.18;52333.94;5004915;28;20333;-68
2023/08/26 11:36:35;;;;;;;;;;;;;;;-144.99;69.62;52307.47;5003155;28;19994;-68
2023/08/26 11:39:02;;;;;;;;;;;;;;;-144.99;70.79;52325.81;5001349;28;19957;-68
2023/08/26 11:41:29;;;;;;;;;;;;;;;-144.99;70.67;52305.41;5001616;28;19977;-68
2023/08/26 11:43:57;;;;;;;;;;;;;;;-144.99;71.09;52305.41;4996418;28;20050;-68
2023/08/26 11:46:23;;;;;;;;;;;;;;;-144.99;70.80;52309.50;5004369;28;20615;-68
2023/08/26 11:48:50;;;;;;;;;;;;;;;-144.99;71.81;52342.09;5003617;28;20510;-68
2023/08/26 11:51:17;;;;;;;;;;;;;;;-144.99;71.51;52354.34;5005216;28;19976;-68
2023/08/26 11:53:43;;;;;;;;;;;;;;;-144.99;71.39;52305.41;4997094;28;19973;-67
2023/08/26 11:56:10;;;;;;;;;;;;;;;-144.99;71.16;52301.34;5005060;28;20485;-67
2023/08/26 11:58:36;;;;;;;;;;;;;;;-144.99;70.52;52270.78;5002585;28;19990;-68
2023/08/26 12:01:05;;;;;;;;;;;;;;;-144.99;69.98;52268.72;4999079;28;19954;-67
2023/08/26 12:03:32;;;;;;;;;;;;;;;-144.99;69.74;52205.53;4999327;28;20006;-68
2023/08/26 12:05:59;;;;;;;;;;;;;;;-144.99;68.98;52179.06;5004468;28;20408;-68
2023/08/26 12:08:25;;;;;;;;;;;;;;;-144.99;67.41;52285.03;5004964;28;20080;-68
2023/08/26 12:10:52;;;;;;;;;;;;;;;-144.99;67.59;52244.28;5006087;28;20011;-69
2023/08/26 12:13:19;;;;;;;;;;;;;;;-144.99;67.91;52272.81;4996345;28;20163;-68
2023/08/26 12:15:46;;;;;;;;;;;;;;;-144.99;68.74;52313.56;5005198;28;20051;-68
2023/08/26 12:18:14;;;;;;;;;;;;;;;-144.99;68.82;52250.38;5006891;28;19980;-68
2023/08/26 12:20:42;;;;;;;;;;;;;;;-144.99;68.14;52280.97;5005555;28;19964;-69